Time;durP1;ratioP1;P1;durP2;ratioP2;P2;SDS_P1;SDS_P2;PMS_P1;PMS_P2;Temp;Humidity;BMP_temperature;BMP_pressure;BME280_temperature;BME280_humidity;BME280_pressure;Samples;Min_cycle;Max_cycle;Signal;HPM_P1;HPM_P2
2021/07/01 00:01:42;;;;;;;57.28;16.55;;;13.70;99.90;;;;;;5034562;28;20459;-88
2021/07/01 00:08:12;;;;;;;54.13;15.68;;;13.70;99.90;;;;;;4973931;28;20125;-88
2021/07/01 00:14:19;;;;;;;59.08;17.15;;;13.70;99.90;;;;;;4973347;28;20542;-87
2021/07/01 00:16:47;;;;;;;40.50;17.38;;;13.70;99.90;;;;;;4979107;28;20062;-87
2021/07/01 00:19:14;;;;;;;52.92;19.55;;;13.70;99.90;;;;;;4991427;28;20054;-87
2021/07/01 00:21:39;;;;;;;54.22;19.35;;;13.70;99.90;;;;;;4995940;28;20070;-87
2021/07/01 00:24:06;;;;;;;50.45;22.63;;;13.70;99.90;;;;;;5014856;28;20080;-88
2021/07/01 00:26:31;;;;;;;41.90;18.55;;;13.70;99.90;;;;;;5020406;28;20068;-87
2021/07/01 00:28:57;;;;;;;44.42;18.60;;;13.60;99.90;;;;;;5031251;28;20471;-87
2021/07/01 00:31:23;;;;;;;45.88;19.27;;;13.60;99.90;;;;;;5007944;28;20520;-87
2021/07/01 00:33:49;;;;;;;49.25;20.15;;;13.50;99.90;;;;;;5014792;28;20049;-87
2021/07/01 00:36:15;;;;;;;41.97;17.38;;;13.50;99.90;;;;;;5031535;28;20037;-87
2021/07/01 00:38:41;;;;;;;36.70;14.68;;;13.50;99.90;;;;;;5032277;28;20793;-87
2021/07/01 00:41:07;;;;;;;29.45;11.88;;;13.50;99.90;;;;;;5015000;28;20056;-87
2021/07/01 00:43:33;;;;;;;32.80;12.93;;;13.40;99.90;;;;;;5031777;28;20111;-87
2021/07/01 00:45:59;;;;;;;31.30;12.52;;;13.40;99.90;;;;;;5014392;28;20033;-87
2021/07/01 00:48:24;;;;;;;34.80;13.40;;;13.40;99.90;;;;;;5032121;28;20096;-87
2021/07/01 00:50:51;;;;;;;37.05;14.65;;;13.40;99.90;;;;;;5015794;28;20133;-88
2021/07/01 00:53:17;;;;;;;37.92;14.23;;;13.40;99.90;;;;;;5032759;28;20444;-87
2021/07/01 00:55:43;;;;;;;44.65;16.98;;;13.40;99.90;;;;;;5019696;28;20049;-87
2021/07/01 00:58:10;;;;;;;46.95;16.58;;;13.50;99.90;;;;;;5027357;28;20412;-86
2021/07/01 01:01:01;;;;;;;51.10;17.48;;;13.50;99.90;;;;;;5031299;28;20108;-87
2021/07/01 01:03:30;;;;;;;45.13;17.52;;;13.50;99.90;;;;;;5016582;28;20045;-87
2021/07/01 01:05:57;;;;;;;56.55;18.48;;;13.60;99.90;;;;;;5032030;28;20048;-88
2021/07/01 01:08:23;;;;;;;58.92;19.15;;;13.50;99.90;;;;;;5030875;28;20037;-88
2021/07/01 01:10:50;;;;;;;56.95;18.33;;;13.60;99.90;;;;;;5013496;28;20440;-86
2021/07/01 01:13:24;;;;;;;43.97;16.73;;;13.60;99.90;;;;;;5013514;28;20049;-89
2021/07/01 01:15:58;;;;;;;53.05;20.42;;;13.60;99.90;;;;;;5017993;28;20371;-86
2021/07/01 01:18:24;;;;;;;58.90;19.98;;;13.60;99.90;;;;;;5022389;28;20048;-86
2021/07/01 01:20:52;;;;;;;51.65;17.55;;;13.60;99.90;;;;;;5018898;28;20045;-87
2021/07/01 01:23:19;;;;;;;47.42;18.13;;;13.60;99.90;;;;;;5031223;28;20050;-91
2021/07/01 01:25:48;;;;;;;62.17;17.38;;;13.60;99.90;;;;;;5014108;28;20056;-86
2021/07/01 01:28:15;;;;;;;59.05;19.80;;;13.60;99.90;;;;;;5031328;28;20041;-91
2021/07/01 01:30:41;;;;;;;55.20;19.40;;;13.70;99.90;;;;;;5013993;28;20116;-88
2021/07/01 01:33:08;;;;;;;42.80;19.27;;;13.60;99.90;;;;;;5010680;28;20457;-87
2021/07/01 01:35:35;;;;;;;55.78;19.88;;;13.70;99.90;;;;;;5024742;28;20804;-88
2021/07/01 01:38:02;;;;;;;54.47;16.30;;;13.60;99.90;;;;;;5031207;28;20045;-87
2021/07/01 01:40:28;;;;;;;65.03;20.92;;;13.60;99.90;;;;;;5031723;28;20047;-88
2021/07/01 01:42:54;;;;;;;61.50;22.27;;;13.60;99.90;;;;;;5031827;28;20477;-88
2021/07/01 01:45:20;;;;;;;73.38;22.75;;;13.60;99.90;;;;;;5012731;28;20045;-88
2021/07/01 01:47:47;;;;;;;65.65;21.92;;;13.70;99.90;;;;;;5031107;28;20054;-89
2021/07/01 01:50:21;;;;;;;60.55;22.00;;;13.70;99.90;;;;;;5013565;28;20172;-88
2021/07/01 01:52:48;;;;;;;64.75;22.15;;;13.60;99.90;;;;;;5030214;28;20041;-86
2021/07/01 01:55:15;;;;;;;65.50;21.30;;;13.70;99.90;;;;;;4999008;28;20057;-88
2021/07/01 01:57:46;;;;;;;59.65;20.25;;;13.70;99.90;;;;;;5013430;28;20049;-86
2021/07/01 02:00:14;;;;;;;70.00;24.45;;;13.70;99.90;;;;;;5030778;28;21281;-87
2021/07/01 02:02:41;;;;;;;74.30;23.58;;;13.70;99.90;;;;;;5012981;28;20226;-87
2021/07/01 02:05:08;;;;;;;75.10;25.35;;;13.70;99.90;;;;;;5029013;28;20049;-87
2021/07/01 02:07:35;;;;;;;73.13;26.10;;;13.80;99.90;;;;;;5013255;28;20037;-88
2021/07/01 02:10:04;;;;;;;85.28;28.60;;;13.70;99.90;;;;;;5000228;28;20039;-87
2021/07/01 02:12:30;;;;;;;103.47;33.90;;;13.80;99.90;;;;;;5034673;28;20544;-88
2021/07/01 02:14:56;;;;;;;69.50;26.85;;;13.70;99.90;;;;;;5016615;28;20129;-88
2021/07/01 02:17:22;;;;;;;70.78;25.17;;;13.80;99.90;;;;;;5000132;28;20041;-90
2021/07/01 02:19:48;;;;;;;77.53;25.40;;;13.90;99.90;;;;;;5016568;28;20041;-87
2021/07/01 02:22:14;;;;;;;55.60;23.10;;;13.90;99.90;;;;;;5034318;28;20413;-88
2021/07/01 02:24:41;;;;;;;71.10;23.10;;;14.00;99.90;;;;;;5032549;28;20034;-86
2021/07/01 02:27:12;;;;;;;65.72;23.48;;;13.90;99.90;;;;;;5021940;28;20041;-87
2021/07/01 02:29:38;;;;;;;64.25;23.23;;;13.90;99.90;;;;;;4998686;28;20784;-86
2021/07/01 02:32:04;;;;;;;68.88;26.25;;;14.00;99.90;;;;;;5015550;28;20037;-87
2021/07/01 02:34:31;;;;;;;70.35;26.48;;;14.00;99.90;;;;;;5014274;28;20049;-91
2021/07/01 02:36:57;;;;;;;57.38;23.73;;;14.00;99.90;;;;;;5033230;28;20045;-87
2021/07/01 02:39:23;;;;;;;71.50;24.73;;;14.00;99.90;;;;;;5033339;28;20046;-92
2021/07/01 02:41:49;;;;;;;65.20;24.65;;;14.00;99.90;;;;;;5033106;28;20392;-88
2021/07/01 02:44:15;;;;;;;54.60;20.83;;;14.00;99.90;;;;;;5033151;28;20037;-88
2021/07/01 02:46:44;;;;;;;53.63;21.63;;;14.00;99.90;;;;;;5018444;28;20040;-87
2021/07/01 02:49:10;;;;;;;54.50;21.35;;;14.00;99.90;;;;;;5025952;28;20158;-87
2021/07/01 02:51:36;;;;;;;50.58;22.67;;;14.00;99.90;;;;;;5013963;28;20390;-88
2021/07/01 02:54:02;;;;;;;52.20;20.33;;;14.00;99.90;;;;;;5016562;28;20041;-88
2021/07/01 02:56:39;;;;;;;49.60;18.70;;;14.00;99.90;;;;;;5015902;28;20088;-87
2021/07/01 02:59:06;;;;;;;56.50;20.33;;;14.00;99.90;;;;;;5021621;28;20046;-87
2021/07/01 03:01:32;;;;;;;68.35;24.33;;;14.00;99.90;;;;;;5023785;28;20047;-89
2021/07/01 03:03:58;;;;;;;59.35;23.73;;;14.00;99.90;;;;;;5016128;28;20053;-89
2021/07/01 03:06:24;;;;;;;62.60;24.05;;;14.00;99.90;;;;;;5015954;28;20041;-93
2021/07/01 03:08:50;;;;;;;72.18;26.25;;;14.10;99.90;;;;;;5033863;28;20093;-88
2021/07/01 03:11:16;;;;;;;62.05;22.48;;;14.10;99.90;;;;;;5030987;28;20139;-88
2021/07/01 03:13:42;;;;;;;65.22;23.85;;;14.20;99.90;;;;;;5024588;28;20251;-88
2021/07/01 03:16:07;;;;;;;67.53;24.30;;;14.20;99.90;;;;;;4998067;28;20087;-87
2021/07/01 03:18:33;;;;;;;76.55;26.20;;;14.20;99.90;;;;;;5014373;28;20504;-88
2021/07/01 03:20:59;;;;;;;87.82;28.90;;;14.20;99.90;;;;;;5021611;28;20496;-89
2021/07/01 03:23:25;;;;;;;79.88;25.23;;;14.20;99.90;;;;;;5033516;28;20486;-90
2021/07/01 03:25:50;;;;;;;38.15;16.35;;;14.30;99.90;;;;;;5033245;28;20056;-88
2021/07/01 03:28:16;;;;;;;70.80;23.00;;;14.30;99.90;;;;;;5015868;28;20069;-87
2021/07/01 03:30:42;;;;;;;77.90;24.38;;;14.30;99.90;;;;;;5016574;28;20064;-87
2021/07/01 03:33:08;;;;;;;60.15;24.50;;;14.30;99.90;;;;;;5017309;28;20048;-87
2021/07/01 03:35:34;;;;;;;64.95;22.95;;;14.30;99.90;;;;;;5015827;28;20056;-88
2021/07/01 03:38:00;;;;;;;72.97;25.90;;;14.30;99.90;;;;;;5015484;28;20485;-88
2021/07/01 03:40:27;;;;;;;78.85;26.70;;;14.30;99.90;;;;;;5007059;28;20033;-92
2021/07/01 03:42:53;;;;;;;82.22;28.27;;;14.30;99.90;;;;;;5014538;28;20045;-88
2021/07/01 03:45:18;;;;;;;94.88;30.38;;;14.30;99.90;;;;;;5015462;28;20049;-88
2021/07/01 03:47:44;;;;;;;103.22;33.60;;;14.40;99.90;;;;;;5014839;28;20065;-87
2021/07/01 03:50:10;;;;;;;84.32;28.85;;;14.40;99.90;;;;;;5033273;28;20072;-88
2021/07/01 03:52:36;;;;;;;93.30;29.02;;;14.50;99.90;;;;;;5015216;28;20045;-87
2021/07/01 03:55:02;;;;;;;81.85;29.55;;;14.50;99.90;;;;;;5031841;28;20061;-87
2021/07/01 03:57:28;;;;;;;82.40;28.70;;;14.50;99.90;;;;;;5014335;28;20046;-88
2021/07/01 03:59:54;;;;;;;89.13;29.85;;;14.50;99.90;;;;;;4998497;28;20072;-89
2021/07/01 04:02:19;;;;;;;94.03;30.48;;;14.60;99.90;;;;;;5031489;28;20132;-88
2021/07/01 04:04:45;;;;;;;83.28;31.60;;;14.60;99.90;;;;;;4999272;28;20485;-88
2021/07/01 04:07:11;;;;;;;84.32;29.42;;;14.60;99.90;;;;;;5030878;28;20439;-88
2021/07/01 04:09:37;;;;;;;73.72;26.85;;;14.60;99.90;;;;;;5032905;28;20041;-87
2021/07/01 04:12:03;;;;;;;76.72;26.58;;;14.70;99.90;;;;;;5031860;28;20065;-88
2021/07/01 04:14:29;;;;;;;92.38;29.42;;;14.70;99.90;;;;;;4999482;28;20072;-90
2021/07/01 04:16:55;;;;;;;93.13;27.45;;;14.80;99.90;;;;;;5034201;28;20037;-89
2021/07/01 04:19:21;;;;;;;68.75;26.25;;;14.90;99.90;;;;;;5017053;28;20053;-89
2021/07/01 04:21:47;;;;;;;66.60;23.13;;;14.90;99.90;;;;;;5035302;28;20073;-90
2021/07/01 04:24:13;;;;;;;76.75;24.00;;;14.90;99.90;;;;;;5016565;28;20042;-88
2021/07/01 04:26:39;;;;;;;67.85;23.85;;;15.00;99.90;;;;;;5031455;28;20513;-90
2021/07/01 04:29:05;;;;;;;75.85;25.83;;;15.00;99.90;;;;;;5022744;28;20045;-88
2021/07/01 04:31:32;;;;;;;68.18;23.92;;;15.00;99.90;;;;;;5013223;28;20049;-91
2021/07/01 04:33:58;;;;;;;81.45;25.05;;;15.10;99.90;;;;;;5040085;28;20522;-90
2021/07/01 04:36:25;;;;;;;67.57;23.38;;;15.10;99.90;;;;;;4996599;28;20125;-87
2021/07/01 04:38:50;;;;;;;64.70;22.90;;;15.10;99.90;;;;;;5020873;28;20051;-89
2021/07/01 04:41:19;;;;;;;60.35;21.02;;;15.10;99.90;;;;;;5014704;28;20477;-88
2021/07/01 04:43:47;;;;;;;68.63;21.42;;;15.10;99.90;;;;;;5004765;28;20485;-88
2021/07/01 04:46:13;;;;;;;62.63;22.25;;;15.10;99.90;;;;;;5039296;28;20049;-88
2021/07/01 04:48:42;;;;;;;69.40;23.60;;;15.20;99.90;;;;;;5038906;28;20069;-89
2021/07/01 04:51:09;;;;;;;80.93;23.23;;;15.20;99.90;;;;;;5013123;28;20044;-87
2021/07/01 04:53:34;;;;;;;68.93;22.42;;;15.20;99.90;;;;;;5035646;28;20064;-90
2021/07/01 04:56:00;;;;;;;66.50;21.50;;;15.20;99.90;;;;;;5018859;28;20096;-90
2021/07/01 04:59:03;;;;;;;63.05;21.45;;;15.20;99.90;;;;;;5019673;28;20041;-88
2021/07/01 05:01:32;;;;;;;56.45;21.92;;;15.20;99.90;;;;;;5032331;28;20132;-88
2021/07/01 05:03:58;;;;;;;57.60;21.70;;;15.20;99.90;;;;;;4999510;28;20532;-88
2021/07/01 05:06:23;;;;;;;72.82;24.40;;;15.20;99.90;;;;;;5016251;28;20064;-89
2021/07/01 05:08:49;;;;;;;69.68;22.77;;;15.20;99.90;;;;;;4999539;28;20077;-88
2021/07/01 05:11:15;;;;;;;76.18;23.10;;;15.30;99.90;;;;;;5016285;28;20037;-88
2021/07/01 05:13:59;;;;;;;70.18;23.13;;;15.30;99.90;;;;;;5034294;28;20568;-88
2021/07/01 05:20:06;;;;;;;69.80;22.42;;;15.20;99.90;;;;;;5013632;28;20125;-88
2021/07/01 05:22:32;;;;;;;61.05;22.05;;;15.20;99.90;;;;;;5017547;28;20043;-88
2021/07/01 05:25:14;;;;;;;76.75;24.05;;;15.20;99.90;;;;;;5015641;28;20041;-88
2021/07/01 05:27:39;;;;;;;54.20;20.95;;;15.20;99.90;;;;;;5015671;28;20057;-88
2021/07/01 05:30:05;;;;;;;54.75;18.95;;;15.20;99.90;;;;;;5015677;28;20457;-88
2021/07/01 05:32:31;;;;;;;69.20;22.45;;;15.20;99.90;;;;;;5032592;28;20045;-88
2021/07/01 05:34:57;;;;;;;66.68;24.38;;;15.20;99.90;;;;;;5030950;28;20044;-90
2021/07/01 05:37:23;;;;;;;79.45;24.73;;;15.20;99.90;;;;;;4997653;28;20432;-89
2021/07/01 05:39:49;;;;;;;70.65;24.13;;;15.20;99.90;;;;;;5016875;28;20045;-88
2021/07/01 05:42:15;;;;;;;75.25;23.95;;;15.20;99.90;;;;;;5018892;28;20040;-90
2021/07/01 05:44:41;;;;;;;54.83;20.13;;;15.20;99.90;;;;;;5015106;28;20053;-88
2021/07/01 05:47:07;;;;;;;76.60;25.30;;;15.20;99.90;;;;;;5035238;28;20056;-88
2021/07/01 05:49:33;;;;;;;76.93;25.27;;;15.20;99.90;;;;;;5033595;28;20041;-87
2021/07/01 05:52:02;;;;;;;81.65;25.25;;;15.20;99.90;;;;;;5000059;28;20060;-88
2021/07/01 05:54:32;;;;;;;70.90;22.35;;;15.20;99.90;;;;;;5017169;28;20049;-87
2021/07/01 05:56:58;;;;;;;77.55;25.17;;;15.30;99.90;;;;;;5035639;28;20633;-87
2021/07/01 05:59:24;;;;;;;72.50;24.98;;;15.20;99.90;;;;;;5020443;28;20064;-86
2021/07/01 06:01:50;;;;;;;76.82;26.20;;;15.30;99.90;;;;;;5031673;28;20037;-87
2021/07/01 06:04:17;;;;;;;77.43;25.60;;;15.30;99.90;;;;;;5012885;28;20045;-87
2021/07/01 06:06:54;;;;;;;83.80;24.20;;;15.30;99.90;;;;;;5013640;28;20037;-88
2021/07/01 06:09:22;;;;;;;82.78;27.35;;;15.30;99.90;;;;;;5036843;28;20041;-88
2021/07/01 06:11:54;;;;;;;90.90;28.70;;;15.30;99.90;;;;;;5030297;28;20042;-90
2021/07/01 06:14:20;;;;;;;92.47;26.63;;;15.30;99.90;;;;;;5030448;28;20072;-87
2021/07/01 06:16:47;;;;;;;73.07;25.88;;;15.40;99.90;;;;;;5031870;28;20037;-87
2021/07/01 06:19:15;;;;;;;89.72;29.95;;;15.40;99.90;;;;;;5011337;28;20041;-86
2021/07/01 06:21:41;;;;;;;87.00;27.55;;;15.50;99.90;;;;;;5016379;28;20038;-87
2021/07/01 06:24:09;;;;;;;85.70;28.52;;;15.50;99.90;;;;;;4999699;28;20477;-88
2021/07/01 06:26:35;;;;;;;82.72;26.58;;;15.50;99.90;;;;;;5014839;28;20041;-88
2021/07/01 06:29:03;;;;;;;81.20;25.52;;;15.60;99.90;;;;;;5033261;28;20077;-87
2021/07/01 06:31:29;;;;;;;81.03;27.75;;;15.60;99.90;;;;;;5009447;28;20100;-89
2021/07/01 06:33:55;;;;;;;82.53;27.25;;;15.60;99.90;;;;;;5019134;28;20065;-84
2021/07/01 06:36:24;;;;;;;73.68;25.35;;;15.60;99.90;;;;;;5025026;28;20061;-85
2021/07/01 06:38:54;;;;;;;77.60;25.65;;;15.70;99.90;;;;;;5029287;28;20041;-88
2021/07/01 06:41:20;;;;;;;;;;;15.70;99.90;;;;;;5036293;28;20049;-87
2021/07/01 06:43:49;;;;;;;79.38;25.85;;;15.80;99.90;;;;;;5014959;28;19925;-88
2021/07/01 06:46:17;;;;;;;81.68;27.30;;;15.80;99.90;;;;;;5029910;28;20095;-87
2021/07/01 06:48:45;;;;;;;82.90;28.23;;;15.90;99.90;;;;;;5014637;28;20064;-92
2021/07/01 06:51:11;;;;;;;70.22;25.38;;;15.90;99.90;;;;;;5026344;28;20049;-89
2021/07/01 06:53:40;;;;;;;76.90;27.55;;;16.00;99.90;;;;;;5033173;28;20045;-86
2021/07/01 06:56:06;;;;;;;83.00;27.15;;;16.00;99.90;;;;;;5012730;28;20107;-91
2021/07/01 06:58:32;;;;;;;75.57;26.80;;;16.10;99.90;;;;;;5036547;28;20045;-84
2021/07/01 07:00:58;;;;;;;88.90;27.55;;;16.20;99.90;;;;;;5030602;28;20043;-87
2021/07/01 07:03:26;;;;;;;76.25;26.30;;;16.20;99.90;;;;;;5031646;28;20041;-89
2021/07/01 07:05:54;;;;;;;73.47;25.77;;;16.20;99.90;;;;;;5032040;28;20045;-88
2021/07/01 07:08:21;;;;;;;63.35;25.08;;;16.30;99.90;;;;;;5031965;28;20429;-88
2021/07/01 07:10:48;;;;;;;65.10;24.95;;;16.30;99.90;;;;;;5016030;28;20412;-88
2021/07/01 07:13:14;;;;;;;74.03;23.52;;;16.30;99.90;;;;;;5028783;28;20100;-90
2021/07/01 07:15:42;;;;;;;66.82;24.30;;;16.40;99.90;;;;;;5033365;28;20044;-88
2021/07/01 07:18:15;;;;;;;69.28;23.15;;;16.40;99.90;;;;;;5013170;28;20507;-91
2021/07/01 07:20:44;;;;;;;67.00;22.98;;;16.40;99.90;;;;;;5033699;28;20558;-90
2021/07/01 07:23:16;;;;;;;68.72;23.88;;;16.50;99.90;;;;;;5033531;28;20054;-89
2021/07/01 07:51:32;;;;;;;41.85;17.58;;;17.00;99.90;;;;;;5295517;23;20144;-85
2021/07/01 07:54:02;;;;;;;45.00;18.00;;;17.10;99.90;;;;;;4941020;28;20502;-86
2021/07/01 07:56:40;;;;;;;44.20;19.05;;;17.10;99.90;;;;;;4970747;28;20117;-85
2021/07/01 07:59:07;;;;;;;49.00;18.27;;;17.20;99.90;;;;;;4978944;28;20085;-85
2021/07/01 08:01:34;;;;;;;55.35;19.30;;;17.20;99.90;;;;;;4973283;28;20506;-85
2021/07/01 08:04:05;;;;;;;50.58;18.38;;;17.30;99.90;;;;;;4967438;28;20066;-85
2021/07/01 08:06:32;;;;;;;44.63;18.75;;;17.30;99.90;;;;;;4961299;28;20042;-85
2021/07/01 08:09:00;;;;;;;49.97;17.40;;;17.40;99.90;;;;;;4958723;28;20046;-84
2021/07/01 08:11:26;;;;;;;39.55;17.17;;;17.60;99.90;;;;;;4990209;28;20053;-84
2021/07/01 08:13:56;;;;;;;44.90;17.15;;;17.60;99.90;;;;;;4958101;28;20052;-84
2021/07/01 08:16:25;;;;;;;40.47;15.85;;;17.60;99.90;;;;;;4967081;28;20050;-88
2021/07/01 08:18:51;;;;;;;37.15;16.38;;;17.70;99.90;;;;;;4969776;28;20042;-83
2021/07/01 08:21:18;;;;;;;35.55;14.82;;;17.70;99.90;;;;;;4973130;28;20042;-84
2021/07/01 08:23:45;;;;;;;49.92;17.50;;;17.80;99.90;;;;;;4984930;28;20042;-83
2021/07/01 08:26:12;;;;;;;36.65;15.68;;;17.70;99.90;;;;;;4940791;28;20061;-84
2021/07/01 08:28:39;;;;;;;31.42;16.02;;;17.80;99.90;;;;;;4968898;28;20046;-84
2021/07/01 08:31:16;;;;;;;40.33;14.57;;;17.70;99.90;;;;;;4955614;28;20376;-84
2021/07/01 08:33:47;;;;;;;39.53;15.48;;;17.70;99.90;;;;;;4972142;28;20291;-85
2021/07/01 08:36:21;;;;;;;31.52;14.00;;;17.70;99.90;;;;;;4985856;28;20061;-85
2021/07/01 08:38:55;;;;;;;36.47;15.40;;;17.60;99.90;;;;;;4982375;28;20129;-85
2021/07/01 08:41:24;;;;;;;33.40;14.25;;;17.60;99.90;;;;;;4972341;28;20121;-89
2021/07/01 08:43:52;;;;;;;34.55;13.98;;;17.70;99.90;;;;;;4965810;28;20057;-84
2021/07/01 08:46:29;;;;;;;41.30;14.63;;;17.80;99.90;;;;;;4974256;28;20577;-83
2021/07/01 08:49:09;;;;;;;37.35;14.60;;;17.90;99.90;;;;;;4954843;28;20390;-83
2021/07/01 08:51:43;;;;;;;30.20;14.27;;;18.00;99.90;;;;;;4959754;28;20051;-83
2021/07/01 08:54:24;;;;;;;34.78;14.75;;;18.00;99.90;;;;;;4982525;28;20048;-82
2021/07/01 08:56:53;;;;;;;36.28;14.32;;;18.10;99.90;;;;;;4963272;28;20512;-86
2021/07/01 08:59:21;;;;;;;35.75;14.32;;;18.20;99.90;;;;;;4981132;28;20143;-84
2021/07/01 09:01:56;;;;;;;27.50;12.75;;;18.40;99.90;;;;;;4986931;28;20062;-85
2021/07/01 09:04:24;;;;;;;29.15;12.88;;;18.50;99.90;;;;;;4988759;28;20421;-82
2021/07/01 09:07:04;;;;;;;29.30;12.18;;;18.50;99.90;;;;;;4973767;28;20049;-86
2021/07/01 09:09:35;;;;;;;30.33;12.80;;;18.70;99.90;;;;;;4976413;28;20047;-85
2021/07/01 09:12:07;;;;;;;28.10;12.55;;;18.70;99.90;;;;;;4983260;28;20049;-85
2021/07/01 09:14:36;;;;;;;27.23;12.65;;;18.90;99.90;;;;;;4980255;28;20177;-86
2021/07/01 09:17:12;;;;;;;25.38;12.73;;;19.10;99.90;;;;;;4975646;28;20043;-85
2021/07/01 09:19:39;;;;;;;35.10;14.05;;;19.20;99.90;;;;;;4969016;28;20030;-85
2021/07/01 09:22:10;;;;;;;22.13;12.30;;;19.30;99.90;;;;;;4970102;28;20038;-87
2021/07/01 09:24:38;;;;;;;20.85;11.68;;;19.40;99.90;;;;;;4965909;28;20038;-86
2021/07/01 09:27:10;;;;;;;26.55;11.95;;;19.60;99.90;;;;;;4969791;28;20399;-87
2021/07/01 09:29:40;;;;;;;19.20;11.90;;;19.60;99.90;;;;;;4969190;28;20047;-86
2021/07/01 09:32:08;;;;;;;20.80;12.13;;;19.50;99.90;;;;;;4952003;28;20054;-85
2021/07/01 09:34:35;;;;;;;26.65;12.23;;;19.40;99.90;;;;;;4966901;28;20046;-86
2021/07/01 09:37:04;;;;;;;22.88;12.13;;;19.40;99.90;;;;;;4973560;28;20584;-85
2021/07/01 09:39:32;;;;;;;19.30;11.23;;;19.60;99.90;;;;;;4973329;28;20039;-88
2021/07/01 09:42:01;;;;;;;19.15;10.32;;;19.70;99.90;;;;;;4970653;28;20430;-85
2021/07/01 09:44:29;;;;;;;17.47;11.03;;;19.70;99.90;;;;;;4975426;28;20057;-89
2021/07/01 09:46:59;;;;;;;20.17;11.00;;;19.70;99.90;;;;;;4971952;28;20077;-86
2021/07/01 09:49:42;;;;;;;13.10;9.88;;;19.70;99.90;;;;;;4968987;28;20117;-86
2021/07/01 09:52:10;;;;;;;22.13;11.75;;;19.50;99.90;;;;;;4982781;28;20062;-86
2021/07/01 09:54:40;;;;;;;21.27;10.95;;;19.60;99.90;;;;;;4988049;28;20133;-84
2021/07/01 09:57:17;;;;;;;24.88;11.82;;;19.70;99.90;;;;;;4988887;28;20422;-84
2021/07/01 10:00:05;;;;;;;21.95;9.88;;;19.70;99.90;;;;;;4990738;28;20046;-86
2021/07/01 10:02:31;;;;;;;24.52;10.77;;;19.80;99.90;;;;;;4993307;28;20474;-86
2021/07/01 10:04:57;;;;;;;16.75;11.00;;;19.80;99.90;;;;;;4974347;28;20042;-84
2021/07/01 10:07:25;;;;;;;20.67;11.10;;;20.00;99.90;;;;;;4989468;28;20453;-84
2021/07/01 10:09:58;;;;;;;26.42;11.40;;;20.00;99.90;;;;;;4971787;28;20202;-85
2021/07/01 10:12:26;;;;;;;18.90;11.15;;;20.00;99.90;;;;;;4973762;28;20045;-84
2021/07/01 10:14:56;;;;;;;17.73;10.60;;;20.20;99.90;;;;;;4955136;28;20271;-84
2021/07/01 10:17:22;;;;;;;16.48;9.73;;;20.30;99.90;;;;;;5000083;28;20038;-83
2021/07/01 10:19:50;;;;;;;19.13;10.60;;;20.30;99.90;;;;;;4961153;28;20097;-84
2021/07/01 10:22:19;;;;;;;16.92;9.88;;;20.50;99.90;;;;;;4982949;28;20066;-83
2021/07/01 10:24:58;;;;;;;21.47;11.77;;;20.40;99.90;;;;;;4995835;28;20046;-83
2021/07/01 10:27:36;;;;;;;18.80;9.85;;;20.60;99.90;;;;;;4967885;28;20490;-83
2021/07/01 10:30:13;;;;;;;21.88;10.27;;;20.80;99.90;;;;;;4992190;28;20475;-83
2021/07/01 10:32:47;;;;;;;18.95;9.73;;;20.80;99.90;;;;;;4991847;28;20049;-84
2021/07/01 10:35:30;;;;;;;17.63;9.38;;;20.90;99.90;;;;;;4992174;28;20046;-83
2021/07/01 10:38:12;;;;;;;15.95;9.13;;;21.00;99.90;;;;;;4998025;28;20109;-83
2021/07/01 10:40:45;;;;;;;21.20;9.32;;;21.20;99.90;;;;;;4996663;28;20100;-85
2021/07/01 10:43:11;;;;;;;17.27;9.23;;;21.20;99.90;;;;;;5003497;28;20124;-84
2021/07/01 10:45:54;;;;;;;18.40;9.25;;;21.30;99.90;;;;;;5000036;28;20081;-85
2021/07/01 10:48:20;;;;;;;15.38;8.90;;;21.40;99.90;;;;;;5003468;28;20045;-83
2021/07/01 10:50:48;;;;;;;20.48;8.30;;;21.40;99.90;;;;;;4977917;28;20081;-84
2021/07/01 10:53:45;;;;;;;10.38;8.18;;;21.50;99.90;;;;;;4963182;28;20070;-84
2021/07/01 10:56:21;;;;;;;16.35;8.45;;;21.60;99.90;;;;;;4970266;28;20058;-83
2021/07/01 10:58:56;;;;;;;17.35;8.70;;;21.50;99.90;;;;;;4967768;28;20054;-84
2021/07/01 11:01:24;;;;;;;18.95;9.30;;;21.50;99.90;;;;;;4971545;28;20253;-83
2021/07/01 11:04:10;;;;;;;16.13;7.97;;;21.60;99.90;;;;;;4972303;28;20046;-84
2021/07/01 11:06:38;;;;;;;16.80;7.75;;;21.40;99.90;;;;;;4975535;28;20533;-85
2021/07/01 11:09:06;;;;;;;14.60;9.18;;;21.30;99.90;;;;;;4974972;28;20147;-83
2021/07/01 11:11:35;;;;;;;16.77;8.10;;;21.20;99.90;;;;;;4982133;28;20046;-83
2021/07/01 11:14:06;;;;;;;15.00;8.48;;;21.10;99.90;;;;;;4990087;28;20072;-83
2021/07/01 11:16:43;;;;;;;12.40;7.25;;;21.30;99.90;;;;;;4990662;28;20035;-84
2021/07/01 11:19:11;;;;;;;17.33;7.40;;;21.30;99.90;;;;;;4983680;28;20864;-83
2021/07/01 11:21:43;;;;;;;17.23;7.90;;;21.50;99.90;;;;;;4969235;28;20053;-87
2021/07/01 11:24:15;;;;;;;13.75;7.63;;;21.60;99.90;;;;;;4975920;28;20112;-83
2021/07/01 11:26:43;;;;;;;15.27;7.63;;;21.80;99.90;;;;;;4982713;28;20038;-87
2021/07/01 11:29:09;;;;;;;12.45;7.20;;;21.80;99.90;;;;;;4980016;28;20042;-83
2021/07/01 11:31:43;;;;;;;13.02;8.05;;;21.80;99.90;;;;;;4985766;28;20126;-84
2021/07/01 11:34:10;;;;;;;19.35;8.98;;;21.80;99.90;;;;;;4974106;28;20038;-82
2021/07/01 11:36:38;;;;;;;13.02;8.38;;;21.80;99.90;;;;;;4974088;28;20038;-83
2021/07/01 11:39:06;;;;;;;15.73;7.65;;;22.00;99.90;;;;;;4973152;28;20043;-83
2021/07/01 11:41:32;;;;;;;14.60;8.05;;;22.10;99.90;;;;;;4966845;28;20046;-83
2021/07/01 11:43:59;;;;;;;18.05;8.43;;;22.00;99.90;;;;;;4989852;28;20580;-84
2021/07/01 11:46:25;;;;;;;17.33;8.15;;;21.80;99.90;;;;;;4973953;28;20076;-83
2021/07/01 11:48:53;;;;;;;21.02;9.68;;;21.70;99.90;;;;;;4990246;28;20039;-84
2021/07/01 11:51:22;;;;;;;19.67;9.18;;;21.60;99.90;;;;;;4995184;28;20057;-84
2021/07/01 11:53:52;;;;;;;14.82;8.95;;;21.40;99.90;;;;;;4998767;28;20034;-83
2021/07/01 11:56:23;;;;;;;17.80;8.07;;;21.40;99.90;;;;;;5003621;28;20050;-85
2021/07/01 11:58:49;;;;;;;17.45;8.20;;;21.30;99.90;;;;;;4995722;28;20042;-83
2021/07/01 12:01:16;;;;;;;16.20;7.15;;;21.30;99.90;;;;;;4977951;28;20058;-84
2021/07/01 12:03:45;;;;;;;14.35;7.43;;;21.40;99.90;;;;;;5010347;28;20042;-86
2021/07/01 12:06:32;;;;;;;14.75;8.57;;;21.50;99.90;;;;;;5010544;28;20052;-84
2021/07/01 12:08:58;;;;;;;18.40;9.00;;;21.40;99.90;;;;;;5009195;28;20125;-83
2021/07/01 12:11:24;;;;;;;11.43;7.97;;;21.20;99.90;;;;;;5002882;28;20042;-83
2021/07/01 12:13:50;;;;;;;18.92;8.10;;;21.20;99.90;;;;;;4991702;28;20057;-82
2021/07/01 12:16:17;;;;;;;14.88;7.40;;;21.00;99.90;;;;;;4992839;28;20060;-82
2021/07/01 12:18:54;;;;;;;16.60;8.45;;;20.90;99.90;;;;;;4992208;28;20038;-86
2021/07/01 12:21:29;;;;;;;18.92;8.98;;;20.80;99.90;;;;;;5007267;28;20046;-85
2021/07/01 12:24:04;;;;;;;16.65;9.27;;;20.70;99.90;;;;;;4993950;28;20048;-85
2021/07/01 12:26:33;;;;;;;15.60;10.18;;;21.00;99.90;;;;;;5001412;28;20545;-83
2021/07/01 12:28:59;;;;;;;23.70;11.50;;;20.90;99.90;;;;;;4983398;28;20047;-83
2021/07/01 12:31:25;;;;;;;22.42;10.80;;;20.80;99.90;;;;;;5002288;28;20084;-83
2021/07/01 12:33:59;;;;;;;18.88;10.27;;;20.90;99.90;;;;;;4982214;28;20050;-85
2021/07/01 12:36:26;;;;;;;17.48;10.43;;;20.80;99.90;;;;;;4982221;28;20038;-84
2021/07/01 12:41:37;;;;;;;20.02;9.30;;;20.80;99.90;;;;;;4995891;28;20161;-84
2021/07/01 12:44:13;;;;;;;15.65;9.45;;;20.90;99.90;;;;;;4996464;28;20057;-85
2021/07/01 12:46:42;;;;;;;16.08;9.77;;;20.80;99.90;;;;;;4979172;28;20038;-84
2021/07/01 12:49:34;;;;;;;17.10;10.13;;;20.80;99.90;;;;;;4977302;28;20186;-85
2021/07/01 12:52:09;;;;;;;18.90;10.95;;;20.70;99.90;;;;;;4976308;28;20065;-84
2021/07/01 12:54:35;;;;;;;26.67;10.55;;;20.60;99.90;;;;;;4958021;28;20037;-85
2021/07/01 12:57:06;;;;;;;17.10;9.95;;;20.60;99.90;;;;;;4980436;28;20504;-86
2021/07/01 12:59:43;;;;;;;16.20;10.65;;;20.60;99.90;;;;;;5002531;28;20116;-85
2021/07/01 13:02:21;;;;;;;23.05;11.68;;;20.80;99.90;;;;;;4994951;28;20033;-84
2021/07/01 13:04:52;;;;;;;33.38;11.10;;;21.00;99.90;;;;;;5009597;28;20196;-84
2021/07/01 13:07:20;;;;;;;24.58;11.45;;;21.00;99.90;;;;;;4994920;28;20046;-86
2021/07/01 13:09:46;;;;;;;25.50;10.88;;;21.10;99.90;;;;;;4994703;28;20045;-84
2021/07/01 13:12:30;;;;;;;17.42;10.60;;;21.20;99.90;;;;;;4976468;28;20318;-84
2021/07/01 13:14:59;;;;;;;22.30;11.00;;;21.20;99.90;;;;;;4976860;28;20202;-85
2021/07/01 13:17:26;;;;;;;17.48;9.73;;;21.30;99.90;;;;;;4998293;28;20053;-83